createdAt,value
2016-12-12T00:00:10.813Z,44.43
2016-12-12T00:00:51.577Z,44.34
2016-12-12T00:01:32.316Z,44.43
2016-12-12T00:02:13.067Z,44.34
2016-12-12T00:02:53.848Z,44.43
2016-12-12T00:03:34.599Z,44.53
2016-12-12T00:04:15.336Z,44.34
2016-12-12T00:04:56.102Z,44.43
2016-12-12T00:05:36.865Z,44.43
2016-12-12T00:06:17.640Z,44.43
2016-12-12T00:06:58.417Z,44.43
2016-12-12T00:07:39.199Z,44.34
2016-12-12T00:08:19.954Z,44.34
2016-12-12T00:09:00.714Z,44.34
2016-12-12T00:09:41.491Z,44.43
2016-12-12T00:10:22.263Z,44.43
2016-12-12T00:11:02.999Z,44.43
2016-12-12T00:11:43.771Z,44.43
2016-12-12T00:12:24.518Z,44.34
2016-12-12T00:13:05.279Z,44.43
2016-12-12T00:13:46.055Z,44.43
2016-12-12T00:14:26.818Z,44.43
2016-12-12T00:15:07.615Z,44.43
2016-12-12T00:15:48.397Z,44.43
2016-12-12T00:16:29.156Z,44.43
2016-12-12T00:17:09.945Z,44.43
2016-12-12T00:17:50.747Z,44.34
2016-12-12T00:18:31.495Z,44.34
2016-12-12T00:19:12.253Z,44.34
2016-12-12T00:19:53.020Z,44.43
2016-12-12T00:20:33.791Z,44.43
2016-12-12T00:21:14.548Z,44.43
2016-12-12T00:21:55.324Z,44.43
2016-12-12T00:22:36.082Z,44.53
2016-12-12T00:23:16.834Z,44.53
2016-12-12T00:23:57.614Z,44.43
2016-12-12T00:24:38.346Z,44.43
2016-12-12T00:25:19.104Z,44.34
2016-12-12T00:25:59.865Z,44.43
2016-12-12T00:26:40.643Z,44.24
2016-12-12T00:27:21.394Z,44.43
2016-12-12T00:28:02.163Z,44.43
2016-12-12T00:28:42.920Z,44.43
2016-12-12T00:29:23.682Z,44.43
2016-12-12T00:30:04.458Z,44.15
2016-12-12T00:30:45.230Z,44.53
2016-12-12T00:31:25.984Z,44.43
2016-12-12T00:32:06.746Z,44.15
2016-12-12T00:32:47.535Z,44.43
2016-12-12T00:33:28.268Z,44.43
2016-12-12T00:34:09.029Z,44.63
2016-12-12T00:34:49.789Z,44.43
2016-12-12T00:35:30.572Z,44.24
2016-12-12T00:36:11.324Z,44.05
2016-12-12T00:36:52.078Z,44.43
2016-12-12T00:37:32.837Z,44.15
2016-12-12T00:38:13.628Z,44.53
2016-12-12T00:38:54.399Z,44.15
2016-12-12T00:39:35.179Z,44.53
2016-12-12T00:40:15.924Z,44.43
2016-12-12T00:40:56.719Z,44.43
2016-12-12T00:41:37.463Z,44.53
2016-12-12T00:42:18.248Z,44.43
2016-12-12T00:42:59.009Z,44.53
2016-12-12T00:43:39.768Z,44.05
2016-12-12T00:44:20.555Z,44.24
2016-12-12T00:45:01.302Z,44.34
2016-12-12T00:45:42.047Z,44.53
2016-12-12T00:46:22.821Z,44.05
2016-12-12T00:47:03.614Z,44.05
2016-12-12T00:47:44.403Z,44.43
2016-12-12T00:48:25.155Z,44.15
2016-12-12T00:49:05.948Z,44.43
2016-12-12T00:49:46.712Z,44.53
2016-12-12T00:50:27.490Z,44.43
2016-12-12T00:51:08.246Z,44.43
2016-12-12T00:51:49.017Z,44.43
2016-12-12T00:52:29.786Z,44.63
2016-12-12T00:53:10.549Z,44.34
2016-12-12T00:53:51.299Z,44.05
2016-12-12T00:54:32.082Z,44.43
2016-12-12T00:55:12.839Z,44.15
2016-12-12T00:55:53.612Z,44.05
2016-12-12T00:56:34.374Z,44.34
2016-12-12T00:57:15.152Z,44.15
2016-12-12T00:57:55.926Z,44.15
2016-12-12T00:58:36.694Z,44.15
2016-12-12T00:59:17.462Z,44.15
2016-12-12T00:59:58.222Z,44.05
2016-12-12T01:00:38.993Z,44.15
2016-12-12T01:01:19.776Z,44.24
2016-12-12T01:02:00.505Z,44.34
2016-12-12T01:02:41.256Z,44.34
2016-12-12T01:03:22.013Z,44.43
2016-12-12T01:04:02.785Z,44.24
2016-12-12T01:04:43.550Z,44.24
2016-12-12T01:05:24.310Z,44.24
2016-12-12T01:06:05.073Z,44.15
2016-12-12T01:06:45.847Z,44.24
2016-12-12T01:07:26.607Z,44.34
2016-12-12T01:08:08.118Z,44.15
2016-12-12T01:08:48.931Z,44.34
2016-12-12T01:09:29.725Z,44.15
2016-12-12T01:10:10.483Z,44.24
2016-12-12T01:10:51.255Z,44.15
2016-12-12T01:11:31.995Z,44.34
2016-12-12T01:12:12.772Z,44.34
2016-12-12T01:12:53.542Z,44.24
2016-12-12T01:13:34.345Z,44.43
2016-12-12T01:14:15.101Z,44.15
2016-12-12T01:14:55.865Z,44.24
2016-12-12T01:15:36.636Z,44.15
2016-12-12T01:16:17.406Z,44.24
2016-12-12T01:16:58.159Z,44.24
2016-12-12T01:17:38.882Z,44.15
2016-12-12T01:18:19.631Z,44.53
2016-12-12T01:19:00.396Z,44.24
2016-12-12T01:19:41.145Z,44.15
2016-12-12T01:20:21.899Z,44.24
2016-12-12T01:21:02.647Z,44.24
2016-12-12T01:21:43.394Z,44.24
2016-12-12T01:22:24.151Z,44.34
2016-12-12T01:23:04.959Z,44.53
2016-12-12T01:23:45.744Z,44.15
2016-12-12T01:24:26.510Z,44.24
2016-12-12T01:25:07.254Z,44.53
2016-12-12T01:25:48.048Z,44.43
2016-12-12T01:26:28.815Z,44.15
2016-12-12T01:27:09.567Z,44.05
2016-12-12T01:27:50.345Z,44.15
2016-12-12T01:28:31.106Z,44.15
2016-12-12T01:29:11.875Z,44.24
2016-12-12T01:29:52.616Z,44.05
2016-12-12T01:30:33.354Z,44.24
2016-12-12T01:31:14.127Z,44.24
2016-12-12T01:31:54.907Z,44.05
2016-12-12T01:32:35.645Z,44.15
2016-12-12T01:33:16.402Z,44.24
2016-12-12T01:33:57.176Z,44.34
2016-12-12T01:34:37.938Z,44.34
2016-12-12T01:35:18.733Z,44.15
2016-12-12T01:35:59.501Z,44.63
2016-12-12T01:36:40.272Z,44.43
2016-12-12T01:37:20.993Z,44.53
2016-12-12T01:38:01.791Z,44.53
2016-12-12T01:38:42.550Z,44.24
2016-12-12T01:39:23.318Z,44.24
2016-12-12T01:40:04.081Z,44.15
2016-12-12T01:40:44.831Z,44.43
2016-12-12T01:41:25.597Z,44.34
2016-12-12T01:42:06.365Z,44.24
2016-12-12T01:42:47.149Z,44.43
2016-12-12T01:43:27.915Z,44.05
2016-12-12T01:44:08.660Z,44.24
2016-12-12T01:44:49.432Z,44.43
2016-12-12T01:45:30.214Z,44.24
2016-12-12T01:46:10.988Z,44.34
2016-12-12T01:46:51.742Z,44.34
2016-12-12T01:47:32.530Z,44.05
2016-12-12T01:48:13.293Z,44.05
2016-12-12T01:48:54.055Z,44.34
2016-12-12T01:49:34.816Z,44.24
2016-12-12T01:50:15.562Z,44.15
2016-12-12T01:50:56.314Z,44.43
2016-12-12T01:51:37.107Z,44.43
2016-12-12T01:52:17.873Z,44.12
2016-12-12T01:52:58.619Z,44.43
2016-12-12T01:53:39.359Z,44.43
2016-12-12T01:54:20.108Z,44.34
2016-12-12T01:55:00.873Z,44.43
2016-12-12T01:55:41.660Z,44.34
2016-12-12T01:56:22.438Z,44.24
2016-12-12T01:57:03.201Z,44.22
2016-12-12T01:57:43.947Z,44.63
2016-12-12T01:58:24.717Z,44.53
2016-12-12T01:59:05.477Z,44.43
2016-12-12T01:59:46.232Z,44.43
2016-12-12T02:00:27.004Z,44.22
2016-12-12T02:01:07.753Z,44.43
2016-12-12T02:01:48.500Z,44.43
2016-12-12T02:02:29.275Z,44.43
2016-12-12T02:03:10.063Z,44.43
2016-12-12T02:03:50.822Z,44.24
2016-12-12T02:04:31.558Z,44.34
2016-12-12T02:05:12.324Z,44.34
2016-12-12T02:05:53.068Z,44.24
2016-12-12T02:06:33.835Z,44.34
2016-12-12T02:07:14.623Z,44.05
2016-12-12T02:07:55.356Z,44.34
2016-12-12T02:08:36.109Z,44.24
2016-12-12T02:09:16.861Z,44.53
2016-12-12T02:09:57.631Z,44.34
2016-12-12T02:10:38.398Z,44.34
2016-12-12T02:11:19.173Z,44.22
2016-12-12T02:11:59.946Z,44.43
2016-12-12T02:12:40.704Z,44.24
2016-12-12T02:13:21.467Z,44.43
2016-12-12T02:14:02.257Z,44.43
2016-12-12T02:14:43.007Z,44.34
2016-12-12T02:15:23.758Z,44.15
2016-12-12T02:16:04.551Z,44.34
2016-12-12T02:16:45.300Z,44.22
2016-12-12T02:17:26.057Z,44.43
2016-12-12T02:18:06.807Z,44.24
2016-12-12T02:18:47.586Z,44.34
2016-12-12T02:19:28.340Z,44.51
2016-12-12T02:20:09.086Z,44.15
2016-12-12T02:20:49.831Z,44.51
2016-12-12T02:21:30.596Z,44.43
2016-12-12T02:22:11.363Z,44.05
2016-12-12T02:22:52.150Z,44.43
2016-12-12T02:23:32.904Z,44.42
2016-12-12T02:24:13.657Z,44.34
2016-12-12T02:24:54.428Z,44.05
2016-12-12T02:25:35.186Z,44.05
2016-12-12T02:26:15.976Z,44.34
2016-12-12T02:26:56.743Z,44.34
2016-12-12T02:27:37.500Z,44.51
2016-12-12T02:28:18.256Z,44.43
2016-12-12T02:28:59.024Z,44.42
2016-12-12T02:29:39.794Z,44.32
2016-12-12T02:30:20.561Z,44.53
2016-12-12T02:31:01.299Z,44.34
2016-12-12T02:31:42.056Z,44.51
2016-12-12T02:32:22.831Z,44.51
2016-12-12T02:33:03.570Z,44.15
2016-12-12T02:33:44.350Z,44.53
2016-12-12T02:34:25.140Z,44.15
2016-12-12T02:35:05.886Z,44.51
2016-12-12T02:35:46.651Z,44.53
2016-12-12T02:36:27.430Z,44.03
2016-12-12T02:37:08.155Z,44.03
2016-12-12T02:37:48.926Z,44.03
2016-12-12T02:38:29.669Z,44.15
2016-12-12T02:39:10.439Z,44.03
2016-12-12T02:39:51.207Z,44.05
2016-12-12T02:40:31.961Z,44.05
2016-12-12T02:41:12.734Z,44.12
2016-12-12T02:41:53.491Z,44.03
2016-12-12T02:42:34.269Z,44.05
2016-12-12T02:43:15.022Z,44.15
2016-12-12T02:43:55.791Z,44.12
2016-12-12T02:44:36.542Z,44.12
2016-12-12T02:45:17.298Z,44.03
2016-12-12T02:45:58.083Z,44.03
2016-12-12T02:46:38.845Z,44.63
2016-12-12T02:47:19.626Z,44.51
2016-12-12T02:48:00.372Z,44.15
2016-12-12T02:48:41.146Z,43.93
2016-12-12T02:49:21.903Z,44.43
2016-12-12T02:50:02.681Z,44.32
2016-12-12T02:50:43.442Z,44.51
2016-12-12T02:51:24.187Z,44.12
2016-12-12T02:52:04.982Z,44.12
2016-12-12T02:52:45.743Z,44.03
2016-12-12T02:53:26.538Z,44.6
2016-12-12T02:54:07.304Z,44.42
2016-12-12T02:54:48.075Z,44.63
2016-12-12T02:55:28.857Z,43.95
2016-12-12T02:56:09.615Z,44.42
2016-12-12T02:56:50.358Z,44.05
2016-12-12T02:57:31.112Z,44.22
2016-12-12T02:58:11.885Z,44.03
2016-12-12T02:58:52.650Z,44.15
2016-12-12T02:59:33.394Z,44.03
2016-12-12T03:00:14.169Z,44.05
2016-12-12T03:00:54.916Z,44.03
2016-12-12T03:01:35.728Z,44.03
2016-12-12T03:02:16.525Z,44.05
2016-12-12T03:02:57.298Z,44.03
2016-12-12T03:03:38.054Z,44.03
2016-12-12T03:04:18.855Z,44.42
2016-12-12T03:04:59.673Z,44.03
2016-12-12T03:05:40.431Z,44.03
2016-12-12T03:06:21.233Z,44.24
2016-12-12T03:07:01.973Z,44.03
2016-12-12T03:07:42.720Z,44.05
2016-12-12T03:08:23.472Z,44.03
2016-12-12T03:09:04.256Z,44.03
2016-12-12T03:09:45.022Z,44.03
2016-12-12T03:10:25.774Z,44.22
2016-12-12T03:11:06.540Z,44.12
2016-12-12T03:11:47.293Z,44.12
2016-12-12T03:12:28.056Z,44.22
2016-12-12T03:13:08.832Z,44.03
2016-12-12T03:13:49.596Z,44.12
2016-12-12T03:14:30.390Z,44.34
2016-12-12T03:15:11.143Z,44.42
2016-12-12T03:15:51.943Z,44.12
2016-12-12T03:16:32.686Z,44.15
2016-12-12T03:17:13.462Z,44.24
2016-12-12T03:17:54.230Z,44.24
2016-12-12T03:18:34.973Z,44.43
2016-12-12T03:19:15.724Z,44.12
2016-12-12T03:19:56.492Z,44.24
2016-12-12T03:20:37.252Z,44.32
2016-12-12T03:21:18.027Z,44.42
2016-12-12T03:21:58.790Z,44.32
2016-12-12T03:22:39.527Z,44.22
2016-12-12T03:23:20.285Z,44.12
2016-12-12T03:24:01.066Z,44.15
2016-12-12T03:24:41.833Z,44.32
2016-12-12T03:25:22.591Z,44.34
2016-12-12T03:26:03.334Z,43.84
2016-12-12T03:26:44.100Z,44.32
2016-12-12T03:27:24.847Z,44.22
2016-12-12T03:28:05.625Z,44.43
2016-12-12T03:28:46.408Z,44.34
2016-12-12T03:29:27.165Z,44.32
2016-12-12T03:30:07.935Z,44.05
2016-12-12T03:30:48.687Z,44.12
2016-12-12T03:31:29.432Z,44.24
2016-12-12T03:32:10.213Z,44.15
2016-12-12T03:32:50.991Z,44.32
2016-12-12T03:33:31.755Z,44.32
2016-12-12T03:34:12.538Z,44.22
2016-12-12T03:34:53.283Z,44.12
2016-12-12T03:35:34.040Z,43.84
2016-12-12T03:36:14.822Z,43.84
2016-12-12T03:36:55.618Z,44.34
2016-12-12T03:37:36.370Z,43.93
2016-12-12T03:38:17.140Z,43.95
2016-12-12T03:38:57.908Z,43.93
2016-12-12T03:39:38.656Z,44.32
2016-12-12T03:40:19.420Z,43.85
2016-12-12T03:41:00.222Z,44.32
2016-12-12T03:41:40.989Z,43.93
2016-12-12T03:42:21.762Z,44.32
2016-12-12T03:43:02.551Z,44.32
2016-12-12T03:43:43.318Z,44.34
2016-12-12T03:44:24.105Z,44.24
2016-12-12T03:45:04.894Z,44.32
2016-12-12T03:45:45.643Z,43.95
2016-12-12T03:46:26.424Z,44.03
2016-12-12T03:47:07.186Z,44.32
2016-12-12T03:47:47.958Z,44.32
2016-12-12T03:48:28.723Z,43.93
2016-12-12T03:49:09.466Z,43.93
2016-12-12T03:49:50.244Z,44.03
2016-12-12T03:50:31.008Z,44.12
2016-12-12T03:51:11.767Z,43.93
2016-12-12T03:51:52.527Z,43.84
2016-12-12T03:52:33.304Z,44.24
2016-12-12T03:53:14.089Z,43.84
2016-12-12T03:53:54.849Z,44.22
2016-12-12T03:54:35.606Z,44.22
2016-12-12T03:55:16.342Z,43.93
2016-12-12T03:55:57.122Z,44.24
2016-12-12T03:56:37.892Z,44.32
2016-12-12T03:57:18.662Z,43.84
2016-12-12T03:57:59.411Z,44.03
2016-12-12T03:58:40.182Z,44.12
2016-12-12T03:59:20.954Z,43.93
2016-12-12T04:00:01.726Z,43.84
2016-12-12T04:00:42.503Z,43.95
2016-12-12T04:01:23.257Z,43.84
2016-12-12T04:02:03.999Z,43.93
2016-12-12T04:02:44.756Z,44.03
2016-12-12T04:03:25.537Z,43.93
2016-12-12T04:04:06.280Z,44.03
2016-12-12T04:04:47.038Z,44.12
2016-12-12T04:05:27.794Z,44.03
2016-12-12T04:06:08.576Z,44.22
2016-12-12T04:06:49.342Z,43.84
2016-12-12T04:07:30.069Z,43.84
2016-12-12T04:08:10.850Z,44.03
2016-12-12T04:08:51.624Z,43.84
2016-12-12T04:09:32.401Z,43.84
2016-12-12T04:10:13.151Z,43.93
2016-12-12T04:10:53.927Z,44.03
2016-12-12T04:11:34.697Z,43.84
2016-12-12T04:12:15.469Z,44.05
2016-12-12T04:12:56.254Z,43.95
2016-12-12T04:13:37.031Z,44.03
2016-12-12T04:14:17.787Z,44.22
2016-12-12T04:14:58.531Z,44.12
2016-12-12T04:15:39.308Z,43.74
2016-12-12T04:16:20.086Z,44.12
2016-12-12T04:17:00.861Z,44.03
2016-12-12T04:17:41.631Z,44.15
2016-12-12T04:18:22.378Z,44.03
2016-12-12T04:19:03.124Z,43.93
2016-12-12T04:19:43.890Z,43.74
2016-12-12T04:20:24.687Z,44.03
2016-12-12T04:21:05.442Z,44.12
2016-12-12T04:21:46.218Z,44.03
2016-12-12T04:22:26.965Z,44.03
2016-12-12T04:23:07.748Z,44.03
2016-12-12T04:23:48.540Z,44.03
2016-12-12T04:24:29.299Z,44.03
2016-12-12T04:25:10.059Z,43.93
2016-12-12T04:25:50.800Z,44.15
2016-12-12T04:26:31.571Z,43.93
2016-12-12T04:27:12.335Z,43.84
2016-12-12T04:27:53.113Z,44.12
2016-12-12T04:28:33.881Z,44.12
2016-12-12T04:29:14.649Z,43.93
2016-12-12T04:29:55.435Z,43.93
2016-12-12T04:30:36.213Z,44.03
2016-12-12T04:31:16.999Z,44.03
2016-12-12T04:31:57.766Z,44.12
2016-12-12T04:32:38.522Z,43.93
2016-12-12T04:33:19.285Z,43.84
2016-12-12T04:34:00.027Z,44.03
2016-12-12T04:34:40.809Z,43.95
2016-12-12T04:35:21.569Z,44.12
2016-12-12T04:36:02.339Z,43.84
2016-12-12T04:36:43.091Z,43.93
2016-12-12T04:37:23.862Z,44.22
2016-12-12T04:38:04.645Z,43.93
2016-12-12T04:38:45.404Z,44.12
2016-12-12T04:39:26.169Z,44.12
2016-12-12T04:40:06.952Z,44.03
2016-12-12T04:40:47.727Z,43.93
2016-12-12T04:41:28.486Z,44.12
2016-12-12T04:42:09.229Z,44.03
2016-12-12T04:42:50.029Z,43.93
2016-12-12T04:43:30.778Z,43.84
2016-12-12T04:44:11.518Z,44.03
2016-12-12T04:44:52.278Z,44.03
2016-12-12T04:45:33.031Z,44.03
2016-12-12T04:46:13.813Z,43.93
2016-12-12T04:46:54.585Z,44.03
2016-12-12T04:47:35.353Z,43.84
2016-12-12T04:48:16.086Z,44.03
2016-12-12T04:48:56.846Z,43.93
2016-12-12T04:49:37.644Z,44.12
2016-12-12T04:50:18.397Z,44.03
2016-12-12T04:50:59.177Z,44.03
2016-12-12T04:51:39.950Z,44.03
2016-12-12T04:52:20.699Z,43.93
2016-12-12T04:53:01.510Z,44.03
2016-12-12T04:53:42.261Z,44.03
2016-12-12T04:54:23.020Z,43.93
2016-12-12T04:55:03.764Z,43.93
2016-12-12T04:55:44.534Z,43.84
2016-12-12T04:56:25.286Z,44.03
2016-12-12T04:57:06.024Z,43.74
2016-12-12T04:57:46.788Z,43.84
2016-12-12T04:58:27.544Z,43.93
2016-12-12T04:59:08.314Z,43.74
2016-12-12T04:59:49.067Z,43.74
2016-12-12T05:00:29.835Z,43.93
2016-12-12T05:01:10.593Z,43.93
2016-12-12T05:01:51.351Z,43.84
2016-12-12T05:02:32.135Z,44.03
2016-12-12T05:03:12.897Z,43.93
2016-12-12T05:03:53.629Z,43.93
2016-12-12T05:04:34.401Z,43.93
2016-12-12T05:05:15.177Z,43.84
2016-12-12T05:05:55.921Z,43.93
2016-12-12T05:06:36.688Z,43.93
2016-12-12T05:07:17.451Z,43.93
2016-12-12T05:07:58.167Z,43.93
2016-12-12T05:08:38.944Z,43.93
2016-12-12T05:09:19.717Z,43.93
2016-12-12T05:10:00.490Z,44.03
2016-12-12T05:10:41.259Z,43.93
2016-12-12T05:11:22.007Z,44.03
2016-12-12T05:12:02.793Z,44.03
2016-12-12T05:12:43.566Z,44.03
2016-12-12T05:13:24.335Z,44.03
2016-12-12T05:14:05.103Z,44.03
2016-12-12T05:14:45.882Z,43.93
2016-12-12T05:15:26.662Z,43.84
2016-12-12T05:16:07.422Z,44.03
2016-12-12T05:16:48.179Z,43.84
2016-12-12T05:17:28.943Z,44.03
2016-12-12T05:18:09.694Z,43.93
2016-12-12T05:18:50.445Z,43.93
2016-12-12T05:19:31.224Z,43.84
2016-12-12T05:20:11.976Z,43.93
2016-12-12T05:20:52.725Z,43.64
2016-12-12T05:21:33.484Z,44.12
2016-12-12T05:22:14.253Z,43.74
2016-12-12T05:22:55.004Z,43.84
2016-12-12T05:23:35.765Z,43.93
2016-12-12T05:24:16.542Z,43.93
2016-12-12T05:24:57.311Z,44.03
2016-12-12T05:25:38.090Z,44.03
2016-12-12T05:26:18.867Z,43.84
2016-12-12T05:26:59.634Z,43.84
2016-12-12T05:27:40.386Z,43.74
2016-12-12T05:28:21.152Z,43.74
2016-12-12T05:29:01.919Z,43.84
2016-12-12T05:29:42.684Z,43.64
2016-12-12T05:30:23.442Z,43.74
2016-12-12T05:31:04.222Z,43.74
2016-12-12T05:31:45.002Z,43.84
2016-12-12T05:32:25.749Z,43.74
2016-12-12T05:33:06.518Z,44.03
2016-12-12T05:33:47.284Z,43.74
2016-12-12T05:34:28.037Z,43.64
2016-12-12T05:35:08.818Z,43.84
2016-12-12T05:35:49.583Z,43.84
2016-12-12T05:36:30.330Z,43.84
2016-12-12T05:37:11.102Z,43.74
2016-12-12T05:37:51.888Z,43.74
2016-12-12T05:38:32.662Z,43.74
2016-12-12T05:39:13.416Z,43.54
2016-12-12T05:39:54.161Z,43.74
2016-12-12T05:40:34.928Z,43.84
2016-12-12T05:41:15.682Z,43.84
2016-12-12T05:41:56.443Z,43.84
2016-12-12T05:42:37.190Z,43.93
2016-12-12T05:43:17.974Z,43.84
2016-12-12T05:43:58.753Z,43.64
2016-12-12T05:44:39.513Z,43.93
2016-12-12T05:45:20.286Z,43.74
2016-12-12T05:46:01.036Z,43.74
2016-12-12T05:46:41.784Z,43.74
2016-12-12T05:47:22.581Z,43.93
2016-12-12T05:48:03.333Z,44.03
2016-12-12T05:48:44.095Z,43.84
2016-12-12T05:49:24.878Z,43.64
2016-12-12T05:50:05.649Z,43.64
2016-12-12T05:50:46.417Z,43.74
2016-12-12T05:51:27.165Z,43.74
2016-12-12T05:52:07.943Z,43.93
2016-12-12T05:52:48.692Z,43.74
2016-12-12T05:53:29.461Z,43.74
2016-12-12T05:54:10.248Z,43.74
2016-12-12T05:54:51.006Z,43.54
2016-12-12T05:55:31.780Z,43.64
2016-12-12T05:56:12.544Z,43.64
2016-12-12T05:56:53.315Z,43.84
2016-12-12T05:57:34.065Z,43.64
2016-12-12T05:58:14.827Z,43.54
2016-12-12T05:58:55.599Z,43.64
2016-12-12T05:59:36.335Z,43.64
2016-12-12T06:00:17.120Z,43.74
2016-12-12T06:00:57.875Z,43.64
2016-12-12T06:01:38.631Z,43.64
2016-12-12T06:02:19.365Z,43.74
2016-12-12T06:03:00.120Z,43.84
2016-12-12T06:03:40.878Z,43.74
2016-12-12T06:04:21.632Z,43.74
2016-12-12T06:05:02.393Z,43.74
2016-12-12T06:05:43.163Z,43.74
2016-12-12T06:06:23.944Z,43.54
2016-12-12T06:07:04.705Z,43.64
2016-12-12T06:07:45.459Z,43.54
2016-12-12T06:08:26.224Z,43.74
2016-12-12T06:09:06.974Z,43.54
2016-12-12T06:09:47.752Z,43.54
2016-12-12T06:10:28.531Z,43.54
2016-12-12T06:11:09.292Z,43.74
2016-12-12T06:11:50.062Z,43.54
2016-12-12T06:12:30.850Z,43.54
2016-12-12T06:13:11.641Z,43.54
2016-12-12T06:13:52.405Z,43.64
2016-12-12T06:14:33.163Z,43.64
2016-12-12T06:15:13.906Z,43.54
2016-12-12T06:15:54.656Z,43.54
2016-12-12T06:16:35.422Z,43.54
2016-12-12T06:17:16.193Z,43.54
2016-12-12T06:17:56.954Z,43.64
2016-12-12T06:18:37.716Z,43.54
2016-12-12T06:19:18.483Z,43.54
2016-12-12T06:19:59.213Z,43.74
2016-12-12T06:20:39.992Z,43.74
2016-12-12T06:21:20.762Z,43.35
2016-12-12T06:22:01.504Z,43.16
2016-12-12T06:22:42.276Z,43.26
2016-12-12T06:23:23.046Z,43.16
2016-12-12T06:24:03.784Z,43.74
2016-12-12T06:24:44.549Z,43.26
2016-12-12T06:25:25.311Z,43.45
2016-12-12T06:26:06.054Z,43.26
2016-12-12T06:26:46.818Z,43.35
2016-12-12T06:27:27.566Z,43.54
2016-12-12T06:28:08.336Z,43.26
2016-12-12T06:28:49.115Z,43.16
2016-12-12T06:29:29.901Z,43.64
2016-12-12T06:30:10.654Z,43.64
2016-12-12T06:30:51.428Z,43.74
2016-12-12T06:31:32.177Z,43.74
2016-12-12T06:32:12.919Z,43.35
2016-12-12T06:32:53.683Z,43.54
2016-12-12T06:33:34.464Z,43.26
2016-12-12T06:34:15.230Z,43.26
2016-12-12T06:34:55.966Z,43.35
2016-12-12T06:35:36.742Z,43.74
2016-12-12T06:36:17.502Z,43.26
2016-12-12T06:36:58.257Z,43.35
2016-12-12T06:37:39.033Z,43.26
2016-12-12T06:38:19.772Z,43.35
2016-12-12T06:39:00.521Z,43.26
2016-12-12T06:39:41.283Z,43.26
2016-12-12T06:40:22.065Z,43.54
2016-12-12T06:41:02.816Z,43.26
2016-12-12T06:41:43.598Z,43.35
2016-12-12T06:42:24.340Z,43.64
2016-12-12T06:43:05.084Z,43.64
2016-12-12T06:43:45.863Z,43.26
2016-12-12T06:44:26.617Z,43.64
2016-12-12T06:45:07.360Z,43.54
2016-12-12T06:45:48.103Z,43.54
2016-12-12T06:46:28.855Z,43.64
2016-12-12T06:47:09.611Z,43.26
2016-12-12T06:47:50.380Z,43.74
2016-12-12T06:48:31.127Z,43.74
2016-12-12T06:49:11.878Z,43.74
2016-12-12T06:49:52.650Z,43.64
2016-12-12T06:50:33.423Z,43.64
2016-12-12T06:51:14.185Z,43.35
2016-12-12T06:51:54.953Z,43.54
2016-12-12T06:52:35.722Z,43.64
2016-12-12T06:53:16.459Z,43.54
2016-12-12T06:53:57.216Z,43.54
2016-12-12T06:54:38.005Z,43.54
2016-12-12T06:55:18.764Z,43.54
2016-12-12T06:55:59.522Z,43.26
2016-12-12T06:56:40.283Z,43.35
2016-12-12T06:57:21.067Z,43.64
2016-12-12T06:58:01.849Z,43.64
2016-12-12T06:58:42.587Z,43.26
2016-12-12T06:59:23.343Z,43.26
2016-12-12T07:00:04.091Z,43.54
2016-12-12T07:00:44.850Z,43.64
2016-12-12T07:01:25.596Z,43.74
2016-12-12T07:02:06.364Z,43.64
2016-12-12T07:02:47.137Z,43.54
2016-12-12T07:03:27.893Z,43.64
2016-12-12T07:04:08.675Z,43.64
2016-12-12T07:04:49.441Z,43.74
2016-12-12T07:05:30.204Z,43.54
2016-12-12T07:06:10.967Z,43.64
2016-12-12T07:06:51.731Z,43.64
2016-12-12T07:07:32.538Z,43.64
2016-12-12T07:08:13.307Z,43.64
2016-12-12T07:08:54.068Z,43.54
2016-12-12T07:09:34.840Z,43.74
2016-12-12T07:10:15.595Z,43.84
2016-12-12T07:10:56.366Z,43.64
2016-12-12T07:11:37.142Z,43.74
2016-12-12T07:12:17.924Z,43.54
2016-12-12T07:12:58.668Z,43.64
2016-12-12T07:13:39.479Z,43.64
2016-12-12T07:14:20.258Z,43.74
2016-12-12T07:15:01.041Z,43.64
2016-12-12T07:15:41.800Z,43.84
2016-12-12T07:16:22.563Z,43.74
2016-12-12T07:17:03.353Z,43.74
2016-12-12T07:17:44.118Z,43.74
2016-12-12T07:18:24.877Z,43.74
2016-12-12T07:19:05.650Z,43.74
2016-12-12T07:19:46.433Z,43.74
2016-12-12T07:20:27.216Z,43.74
2016-12-12T07:21:07.989Z,43.74
2016-12-12T07:21:48.751Z,43.74
2016-12-12T07:22:29.502Z,43.74
2016-12-12T07:23:10.283Z,43.74
2016-12-12T07:23:51.096Z,43.74
2016-12-12T07:24:31.858Z,43.74
2016-12-12T07:25:12.617Z,43.64
2016-12-12T07:25:53.371Z,43.64
2016-12-12T07:26:34.116Z,43.64
2016-12-12T07:27:15.001Z,43.84
2016-12-12T07:27:55.765Z,43.84
2016-12-12T07:28:36.543Z,43.74
2016-12-12T07:29:17.309Z,43.84
2016-12-12T07:29:58.084Z,43.93
2016-12-12T07:30:38.863Z,43.84
2016-12-12T07:31:19.635Z,43.93
2016-12-12T07:32:00.386Z,43.84
2016-12-12T07:32:41.177Z,43.64
2016-12-12T07:33:21.951Z,43.74
2016-12-12T07:34:03.340Z,43.64
2016-12-12T07:34:43.507Z,43.64
2016-12-12T07:35:24.900Z,44.03
2016-12-12T07:36:05.737Z,43.93
2016-12-12T07:36:46.485Z,43.93
2016-12-12T07:37:27.262Z,43.93
2016-12-12T07:38:08.023Z,43.93
2016-12-12T07:38:48.767Z,43.93
2016-12-12T07:39:29.542Z,43.93
2016-12-12T07:40:10.420Z,43.93
2016-12-12T07:40:51.844Z,43.74
2016-12-12T07:41:31.931Z,43.64
2016-12-12T07:42:12.694Z,43.26
2016-12-12T07:42:53.431Z,43.06
2016-12-12T07:43:35.414Z,43.18
2016-12-12T07:44:16.054Z,42.7
2016-12-12T07:44:56.802Z,42.77
2016-12-12T07:45:38.405Z,42.31
2016-12-12T07:46:19.186Z,42.19
2016-12-12T07:46:59.953Z,42.79
2016-12-12T07:47:40.707Z,42.89
2016-12-12T07:48:21.510Z,42.12
2016-12-12T07:49:02.277Z,42.31
2016-12-12T07:49:43.036Z,42.5
2016-12-12T07:50:23.792Z,42.12
2016-12-12T07:51:04.575Z,42.5
2016-12-12T07:51:45.360Z,41.63
2016-12-12T07:52:26.109Z,42.02
2016-12-12T07:53:06.871Z,42.21
2016-12-12T07:53:47.610Z,42.02
2016-12-12T07:54:28.435Z,41.83
2016-12-12T07:55:09.201Z,42.02
2016-12-12T07:55:49.971Z,41.63
2016-12-12T07:56:30.735Z,41.63
2016-12-12T07:57:11.510Z,41.73
2016-12-12T07:57:52.289Z,42.02
2016-12-12T07:58:33.065Z,42.12
2016-12-12T07:59:13.842Z,41.83
2016-12-12T07:59:54.595Z,41.73
2016-12-12T08:00:35.373Z,42.12
2016-12-12T08:01:16.149Z,41.44
2016-12-12T08:01:56.953Z,41.73
2016-12-12T08:02:37.702Z,41.54
2016-12-12T08:03:18.474Z,41.54
2016-12-12T08:03:59.210Z,41.35
2016-12-12T08:04:39.960Z,41.54
2016-12-12T08:05:20.750Z,41.63
2016-12-12T08:06:01.521Z,41.25
2016-12-12T08:06:42.289Z,41.54
2016-12-12T08:07:23.065Z,41.83
2016-12-12T08:08:03.823Z,41.63
2016-12-12T08:08:44.595Z,41.46
2016-12-12T08:09:25.369Z,41.63
2016-12-12T08:10:06.135Z,41.36
2016-12-12T08:10:46.890Z,41.46
2016-12-12T08:11:27.655Z,41.56
2016-12-12T08:12:08.443Z,41.56
2016-12-12T08:12:49.188Z,41.54
2016-12-12T08:13:29.952Z,41.46
2016-12-12T08:14:10.713Z,40.67
2016-12-12T08:14:52.368Z,40.67
2016-12-12T08:15:32.279Z,41.46
2016-12-12T08:16:13.039Z,41.46
2016-12-12T08:16:53.819Z,41.44
2016-12-12T08:17:35.305Z,41.54
2016-12-12T08:18:16.081Z,41.56
2016-12-12T08:18:56.850Z,41.36
2016-12-12T08:19:37.608Z,41.46
2016-12-12T08:20:18.344Z,41.36
2016-12-12T08:20:59.113Z,41.56
2016-12-12T08:21:39.895Z,40.77
2016-12-12T08:22:21.367Z,41.63
2016-12-12T08:23:01.428Z,41.17
2016-12-12T08:23:42.213Z,40.69
2016-12-12T08:24:23.007Z,40.3
2016-12-12T08:25:03.773Z,40.69
2016-12-12T08:25:44.528Z,40.69
2016-12-12T08:26:25.308Z,40.78
2016-12-12T08:27:06.083Z,40.69
2016-12-12T08:27:46.874Z,40.78
2016-12-12T08:28:27.679Z,40.98
2016-12-12T08:29:09.444Z,40.98
2016-12-12T08:29:50.209Z,41.08
2016-12-12T08:30:31.004Z,40.69
2016-12-12T08:31:11.772Z,40.69
2016-12-12T08:31:52.559Z,40.78
2016-12-12T08:32:33.303Z,40.69
2016-12-12T08:33:14.083Z,42.91
2016-12-12T08:33:54.879Z,43.78
2016-12-12T08:34:35.668Z,44.15
2016-12-12T08:35:16.449Z,44.53
2016-12-12T08:35:57.210Z,44.43
2016-12-12T08:36:37.983Z,44.34
2016-12-12T08:37:18.763Z,44.51
2016-12-12T08:37:59.540Z,44.51
2016-12-12T08:38:40.313Z,44.6
2016-12-12T08:39:21.075Z,44.7
2016-12-12T08:40:01.833Z,44.43
2016-12-12T08:40:42.613Z,44.6
2016-12-12T08:41:23.391Z,44.63
2016-12-12T08:42:04.144Z,44.42
2016-12-12T08:42:44.891Z,44.34
2016-12-12T08:43:25.678Z,44.42
2016-12-12T08:44:06.432Z,44.22
2016-12-12T08:44:47.177Z,44.32